sensor_id;sensor_type;location;lat;lon;timestamp;pressure;altitude;pressure_sealevel;temperature;humidity
69570;BME280;56781;42.292;23.146;2023-04-09T00:00:11;95758.28;;;2.60;100.00
69570;BME280;56781;42.292;23.146;2023-04-09T00:02:39;95779.75;;;2.63;100.00
69570;BME280;56781;42.292;23.146;2023-04-09T00:05:06;95760.91;;;2.60;100.00
69570;BME280;56781;42.292;23.146;2023-04-09T00:07:34;95763.66;;;2.87;100.00
69570;BME280;56781;42.292;23.146;2023-04-09T00:10:01;95766.09;;;2.88;100.00
69570;BME280;56781;42.292;23.146;2023-04-09T00:12:28;95773.25;;;2.93;100.00
69570;BME280;56781;42.292;23.146;2023-04-09T00:14:56;95782.44;;;3.07;100.00
69570;BME280;56781;42.292;23.146;2023-04-09T00:17:23;95797.94;;;3.43;100.00
69570;BME280;56781;42.292;23.146;2023-04-09T00:19:50;95783.13;;;3.20;100.00
69570;BME280;56781;42.292;23.146;2023-04-09T00:22:17;95783.09;;;2.98;100.00
69570;BME280;56781;42.292;23.146;2023-04-09T00:24:45;95777.25;;;2.96;100.00
69570;BME280;56781;42.292;23.146;2023-04-09T00:27:12;95770.56;;;2.88;100.00
69570;BME280;56781;42.292;23.146;2023-04-09T00:29:39;95781.69;;;2.90;100.00
69570;BME280;56781;42.292;23.146;2023-04-09T00:32:06;95773.06;;;2.39;100.00
69570;BME280;56781;42.292;23.146;2023-04-09T00:34:34;95770.97;;;2.07;100.00
69570;BME280;56781;42.292;23.146;2023-04-09T00:37:01;95791.13;;;2.13;100.00
69570;BME280;56781;42.292;23.146;2023-04-09T00:39:28;95783.31;;;2.18;100.00
69570;BME280;56781;42.292;23.146;2023-04-09T00:41:56;95813.88;;;2.31;100.00
69570;BME280;56781;42.292;23.146;2023-04-09T00:44:24;95791.44;;;2.00;100.00
69570;BME280;56781;42.292;23.146;2023-04-09T00:46:52;95789.50;;;1.95;100.00
69570;BME280;56781;42.292;23.146;2023-04-09T00:49:20;95771.19;;;1.89;100.00
69570;BME280;56781;42.292;23.146;2023-04-09T00:51:48;95782.91;;;2.10;100.00
69570;BME280;56781;42.292;23.146;2023-04-09T00:54:15;95783.78;;;2.15;100.00
69570;BME280;56781;42.292;23.146;2023-04-09T00:56:42;95781.75;;;2.22;100.00
69570;BME280;56781;42.292;23.146;2023-04-09T00:59:10;95771.13;;;2.34;100.00
69570;BME280;56781;42.292;23.146;2023-04-09T01:01:37;95790.38;;;2.69;100.00
69570;BME280;56781;42.292;23.146;2023-04-09T01:04:04;95799.44;;;2.73;100.00
69570;BME280;56781;42.292;23.146;2023-04-09T01:06:57;95785.03;;;2.63;100.00
69570;BME280;56781;42.292;23.146;2023-04-09T01:09:33;95779.75;;;2.63;100.00
69570;BME280;56781;42.292;23.146;2023-04-09T01:12:08;95785.03;;;2.63;100.00
69570;BME280;56781;42.292;23.146;2023-04-09T01:14:56;95798.72;;;2.77;100.00
69570;BME280;56781;42.292;23.146;2023-04-09T01:17:39;95781.97;;;2.72;100.00
69570;BME280;56781;42.292;23.146;2023-04-09T01:20:28;95795.31;;;2.82;100.00
69570;BME280;56781;42.292;23.146;2023-04-09T01:23:24;95821.41;;;2.95;100.00
69570;BME280;56781;42.292;23.146;2023-04-09T01:26:22;95822.25;;;2.79;100.00
69570;BME280;56781;42.292;23.146;2023-04-09T01:28:56;95807.94;;;2.41;100.00
69570;BME280;56781;42.292;23.146;2023-04-09T01:31:35;95782.75;;;1.71;100.00
69570;BME280;56781;42.292;23.146;2023-04-09T01:34:04;95780.47;;;1.05;100.00
69570;BME280;56781;42.292;23.146;2023-04-09T01:36:34;95774.84;;;1.14;100.00
69570;BME280;56781;42.292;23.146;2023-04-09T01:39:02;95785.53;;;1.36;100.00
69570;BME280;56781;42.292;23.146;2023-04-09T01:41:32;95772.72;;;1.27;100.00
69570;BME280;56781;42.292;23.146;2023-04-09T01:44:02;95779.69;;;1.05;100.00
69570;BME280;56781;42.292;23.146;2023-04-09T01:46:30;95784.19;;;0.93;100.00
69570;BME280;56781;42.292;23.146;2023-04-09T01:48:58;95780.38;;;1.00;100.00
69570;BME280;56781;42.292;23.146;2023-04-09T01:51:25;95780.03;;;0.97;100.00
69570;BME280;56781;42.292;23.146;2023-04-09T01:53:53;95787.13;;;1.08;100.00
69570;BME280;56781;42.292;23.146;2023-04-09T01:56:20;95773.13;;;1.07;100.00
69570;BME280;56781;42.292;23.146;2023-04-09T01:58:47;95768.88;;;1.18;100.00
69570;BME280;56781;42.292;23.146;2023-04-09T02:01:30;95771.81;;;1.33;100.00
69570;BME280;56781;42.292;23.146;2023-04-09T02:04:09;95761.28;;;1.22;100.00
69570;BME280;56781;42.292;23.146;2023-04-09T02:09:23;95748.78;;;1.29;100.00
69570;BME280;56781;42.292;23.146;2023-04-09T02:11:51;95765.59;;;1.40;100.00
69570;BME280;56781;42.292;23.146;2023-04-09T02:14:19;95774.81;;;1.54;100.00
69570;BME280;56781;42.292;23.146;2023-04-09T02:16:48;95757.19;;;1.43;100.00
69570;BME280;56781;42.292;23.146;2023-04-09T02:19:15;95757.38;;;1.53;100.00
69570;BME280;56781;42.292;23.146;2023-04-09T02:21:42;95790.53;;;1.77;100.00
69570;BME280;56781;42.292;23.146;2023-04-09T02:24:10;95770.94;;;1.73;100.00
69570;BME280;56781;42.292;23.146;2023-04-09T02:26:37;95752.84;;;1.65;100.00
69570;BME280;56781;42.292;23.146;2023-04-09T02:29:04;95758.94;;;1.66;100.00
69570;BME280;56781;42.292;23.146;2023-04-09T02:31:31;95759.84;;;1.71;100.00
69570;BME280;56781;42.292;23.146;2023-04-09T02:33:58;95759.25;;;1.69;100.00
69570;BME280;56781;42.292;23.146;2023-04-09T02:36:25;95760.72;;;1.77;100.00
69570;BME280;56781;42.292;23.146;2023-04-09T02:38:53;95756.22;;;1.77;100.00
69570;BME280;56781;42.292;23.146;2023-04-09T02:41:20;95759.97;;;1.82;100.00
69570;BME280;56781;42.292;23.146;2023-04-09T02:43:47;95784.88;;;2.03;100.00
69570;BME280;56781;42.292;23.146;2023-04-09T02:46:14;95754.31;;;1.90;100.00
69570;BME280;56781;42.292;23.146;2023-04-09T02:48:42;95752.91;;;1.99;100.00
69570;BME280;56781;42.292;23.146;2023-04-09T02:51:09;95790.47;;;2.06;100.00
69570;BME280;56781;42.292;23.146;2023-04-09T02:53:36;95753.81;;;1.59;100.00
69570;BME280;56781;42.292;23.146;2023-04-09T02:56:05;95774.41;;;1.45;100.00
69570;BME280;56781;42.292;23.146;2023-04-09T02:58:32;95760.53;;;1.09;100.00
69570;BME280;56781;42.292;23.146;2023-04-09T03:00:59;95745.97;;;1.07;100.00
69570;BME280;56781;42.292;23.146;2023-04-09T03:03:26;95772.19;;;1.14;100.00
69570;BME280;56781;42.292;23.146;2023-04-09T03:05:53;95746.66;;;0.74;100.00
69570;BME280;56781;42.292;23.146;2023-04-09T03:08:21;95754.41;;;0.80;100.00
69570;BME280;56781;42.292;23.146;2023-04-09T03:10:48;95755.13;;;1.16;100.00
69570;BME280;56781;42.292;23.146;2023-04-09T03:13:15;95759.00;;;1.25;100.00
69570;BME280;56781;42.292;23.146;2023-04-09T03:15:42;95745.38;;;1.17;100.00
69570;BME280;56781;42.292;23.146;2023-04-09T03:18:09;95749.41;;;1.07;100.00
69570;BME280;56781;42.292;23.146;2023-04-09T03:20:37;95746.88;;;1.13;100.00
69570;BME280;56781;42.292;23.146;2023-04-09T03:23:05;95736.75;;;0.93;100.00
69570;BME280;56781;42.292;23.146;2023-04-09T03:25:32;95765.13;;;1.14;100.00
69570;BME280;56781;42.292;23.146;2023-04-09T03:27:59;95756.94;;;0.87;100.00
69570;BME280;56781;42.292;23.146;2023-04-09T03:30:28;95751.34;;;0.60;100.00
69570;BME280;56781;42.292;23.146;2023-04-09T03:32:55;95751.91;;;0.62;100.00
69570;BME280;56781;42.292;23.146;2023-04-09T03:35:24;95751.13;;;0.38;100.00
69570;BME280;56781;42.292;23.146;2023-04-09T03:37:51;95769.00;;;0.48;100.00
69570;BME280;56781;42.292;23.146;2023-04-09T03:40:19;95782.63;;;0.68;100.00
69570;BME280;56781;42.292;23.146;2023-04-09T03:42:46;95757.66;;;0.47;100.00
69570;BME280;56781;42.292;23.146;2023-04-09T03:45:14;95770.91;;;0.76;100.00
69570;BME280;56781;42.292;23.146;2023-04-09T03:47:41;95774.44;;;0.81;100.00
69570;BME280;56781;42.292;23.146;2023-04-09T03:50:09;95759.47;;;0.70;100.00
69570;BME280;56781;42.292;23.146;2023-04-09T03:52:38;95752.69;;;0.86;100.00
69570;BME280;56781;42.292;23.146;2023-04-09T03:55:06;95759.09;;;0.78;100.00
69570;BME280;56781;42.292;23.146;2023-04-09T03:57:33;95777.41;;;0.97;100.00
69570;BME280;56781;42.292;23.146;2023-04-09T04:00:00;95772.84;;;0.80;100.00
69570;BME280;56781;42.292;23.146;2023-04-09T04:02:27;95777.88;;;0.94;100.00
69570;BME280;56781;42.292;23.146;2023-04-09T04:04:59;95746.25;;;0.94;100.00
69570;BME280;56781;42.292;23.146;2023-04-09T04:07:26;95787.63;;;1.33;100.00
69570;BME280;56781;42.292;23.146;2023-04-09T04:09:54;95769.66;;;1.30;100.00
69570;BME280;56781;42.292;23.146;2023-04-09T04:12:21;95762.53;;;1.31;100.00
69570;BME280;56781;42.292;23.146;2023-04-09T04:14:48;95759.84;;;1.43;100.00
69570;BME280;56781;42.292;23.146;2023-04-09T04:17:15;95753.97;;;1.52;100.00
69570;BME280;56781;42.292;23.146;2023-04-09T04:19:42;95785.34;;;1.66;100.00
69570;BME280;56781;42.292;23.146;2023-04-09T04:22:09;95753.09;;;1.64;100.00
69570;BME280;56781;42.292;23.146;2023-04-09T04:24:36;95788.88;;;2.05;100.00
69570;BME280;56781;42.292;23.146;2023-04-09T04:27:03;95760.72;;;1.94;100.00
69570;BME280;56781;42.292;23.146;2023-04-09T04:29:31;95760.91;;;2.04;100.00
69570;BME280;56781;42.292;23.146;2023-04-09T04:31:58;95762.50;;;2.05;100.00
69570;BME280;56781;42.292;23.146;2023-04-09T04:34:25;95753.22;;;2.03;100.00
69570;BME280;56781;42.292;23.146;2023-04-09T04:36:52;95775.38;;;2.18;100.00
69570;BME280;56781;42.292;23.146;2023-04-09T04:39:19;95752.56;;;2.29;100.00
69570;BME280;56781;42.292;23.146;2023-04-09T04:41:46;95765.75;;;2.46;100.00
69570;BME280;56781;42.292;23.146;2023-04-09T04:44:14;95786.00;;;2.40;100.00
69570;BME280;56781;42.292;23.146;2023-04-09T04:46:41;95775.38;;;2.18;100.00
69570;BME280;56781;42.292;23.146;2023-04-09T04:49:08;95781.06;;;2.27;100.00
69570;BME280;56781;42.292;23.146;2023-04-09T04:51:35;95788.44;;;2.42;100.00
69570;BME280;56781;42.292;23.146;2023-04-09T04:54:03;95777.22;;;2.35;100.00
69570;BME280;56781;42.292;23.146;2023-04-09T04:56:30;95770.56;;;2.32;100.00
69570;BME280;56781;42.292;23.146;2023-04-09T04:58:57;95770.00;;;2.30;100.00
69570;BME280;56781;42.292;23.146;2023-04-09T05:01:24;95774.00;;;2.33;100.00
69570;BME280;56781;42.292;23.146;2023-04-09T05:03:51;95782.88;;;2.43;100.00
69570;BME280;56781;42.292;23.146;2023-04-09T05:06:19;95774.16;;;2.43;100.00
69570;BME280;56781;42.292;23.146;2023-04-09T05:08:46;95807.06;;;2.69;100.00
69570;BME280;56781;42.292;23.146;2023-04-09T05:11:13;95776.88;;;2.48;100.00
69570;BME280;56781;42.292;23.146;2023-04-09T05:13:42;95774.47;;;2.63;100.00
69570;BME280;56781;42.292;23.146;2023-04-09T05:16:15;95778.53;;;2.71;100.00
69570;BME280;56781;42.292;23.146;2023-04-09T05:18:43;95764.16;;;2.84;100.00
69570;BME280;56781;42.292;23.146;2023-04-09T05:21:10;95784.34;;;3.34;100.00
69570;BME280;56781;42.292;23.146;2023-04-09T05:23:37;95796.97;;;3.76;100.00
69570;BME280;56781;42.292;23.146;2023-04-09T05:26:05;95794.09;;;3.77;100.00
69570;BME280;56781;42.292;23.146;2023-04-09T05:28:32;95796.22;;;4.08;100.00
69570;BME280;56781;42.292;23.146;2023-04-09T05:30:59;95789.63;;;4.10;100.00
69570;BME280;56781;42.292;23.146;2023-04-09T05:33:26;95789.69;;;3.88;100.00
69570;BME280;56781;42.292;23.146;2023-04-09T05:35:53;95784.88;;;4.50;100.00
69570;BME280;56781;42.292;23.146;2023-04-09T05:38:21;95794.19;;;4.95;100.00
69570;BME280;56781;42.292;23.146;2023-04-09T05:40:48;95807.06;;;5.23;100.00
69570;BME280;56781;42.292;23.146;2023-04-09T05:43:15;95791.75;;;5.41;100.00
69570;BME280;56781;42.292;23.146;2023-04-09T05:45:42;95780.16;;;5.77;100.00
69570;BME280;56781;42.292;23.146;2023-04-09T05:48:09;95782.91;;;6.39;100.00
69570;BME280;56781;42.292;23.146;2023-04-09T05:50:36;95798.50;;;7.17;98.24
69570;BME280;56781;42.292;23.146;2023-04-09T05:53:20;95781.63;;;7.47;96.33
69570;BME280;56781;42.292;23.146;2023-04-09T05:55:48;95781.59;;;8.36;92.87
69570;BME280;56781;42.292;23.146;2023-04-09T05:58:15;95787.84;;;9.14;87.86
69570;BME280;56781;42.292;23.146;2023-04-09T06:00:44;95816.06;;;9.68;86.19
69570;BME280;56781;42.292;23.146;2023-04-09T06:03:11;95785.56;;;9.93;82.36
69570;BME280;56781;42.292;23.146;2023-04-09T06:05:38;95784.56;;;11.06;77.57
69570;BME280;56781;42.292;23.146;2023-04-09T06:08:06;95779.03;;;11.44;76.18
69570;BME280;56781;42.292;23.146;2023-04-09T06:10:33;95778.63;;;11.65;72.78
69570;BME280;56781;42.292;23.146;2023-04-09T06:13:00;95796.50;;;11.97;71.29
69570;BME280;56781;42.292;23.146;2023-04-09T06:15:27;95767.06;;;12.51;68.76
69570;BME280;56781;42.292;23.146;2023-04-09T06:17:54;95813.25;;;13.06;65.06
69570;BME280;56781;42.292;23.146;2023-04-09T06:20:24;95790.06;;;12.88;65.48
69570;BME280;56781;42.292;23.146;2023-04-09T06:22:51;95778.25;;;11.44;70.52
69570;BME280;56781;42.292;23.146;2023-04-09T06:25:19;95808.47;;;9.99;76.12
69570;BME280;56781;42.292;23.146;2023-04-09T06:27:46;95784.47;;;10.13;77.10
69570;BME280;56781;42.292;23.146;2023-04-09T06:30:13;95767.44;;;10.42;77.24
69570;BME280;56781;42.292;23.146;2023-04-09T06:32:40;95783.47;;;9.47;79.33
69570;BME280;56781;42.292;23.146;2023-04-09T06:35:19;95785.53;;;10.12;76.81
69570;BME280;56781;42.292;23.146;2023-04-09T06:37:46;95787.16;;;9.03;80.69
69570;BME280;56781;42.292;23.146;2023-04-09T06:40:14;95793.00;;;9.77;80.52
69570;BME280;56781;42.292;23.146;2023-04-09T06:42:41;95807.59;;;10.75;76.72
69570;BME280;56781;42.292;23.146;2023-04-09T06:45:08;95796.44;;;10.86;76.98
69570;BME280;56781;42.292;23.146;2023-04-09T06:47:35;95811.09;;;10.75;77.11
69570;BME280;56781;42.292;23.146;2023-04-09T06:50:03;95781.22;;;10.35;79.18
69570;BME280;56781;42.292;23.146;2023-04-09T06:52:30;95790.03;;;10.36;77.53
69570;BME280;56781;42.292;23.146;2023-04-09T06:54:57;95776.16;;;10.99;74.87
69570;BME280;56781;42.292;23.146;2023-04-09T06:57:25;95772.34;;;10.86;73.10
69570;BME280;56781;42.292;23.146;2023-04-09T06:59:52;95799.19;;;11.42;71.20
69570;BME280;56781;42.292;23.146;2023-04-09T07:02:19;95781.22;;;11.70;72.90
69570;BME280;56781;42.292;23.146;2023-04-09T07:04:47;95766.81;;;13.23;68.78
69570;BME280;56781;42.292;23.146;2023-04-09T07:07:14;95774.00;;;14.03;65.82
69570;BME280;56781;42.292;23.146;2023-04-09T07:09:41;95784.09;;;15.87;58.85
69570;BME280;56781;42.292;23.146;2023-04-09T07:12:09;95772.19;;;16.09;57.55
69570;BME280;56781;42.292;23.146;2023-04-09T07:14:36;95764.31;;;15.74;55.72
69570;BME280;56781;42.292;23.146;2023-04-09T07:17:03;95773.88;;;15.92;54.81
69570;BME280;56781;42.292;23.146;2023-04-09T07:19:30;95768.81;;;14.58;56.51
69570;BME280;56781;42.292;23.146;2023-04-09T07:21:57;95800.13;;;12.82;60.80
69570;BME280;56781;42.292;23.146;2023-04-09T07:24:24;95788.66;;;11.87;64.67
69570;BME280;56781;42.292;23.146;2023-04-09T07:26:52;95780.72;;;11.68;66.49
69570;BME280;56781;42.292;23.146;2023-04-09T07:29:19;95804.34;;;11.52;67.36
69570;BME280;56781;42.292;23.146;2023-04-09T07:31:47;95774.66;;;11.62;66.32
69570;BME280;56781;42.292;23.146;2023-04-09T07:34:15;95790.25;;;11.19;67.95
69570;BME280;56781;42.292;23.146;2023-04-09T07:36:42;95809.41;;;11.26;69.22
69570;BME280;56781;42.292;23.146;2023-04-09T07:39:09;95787.16;;;11.67;67.62
69570;BME280;56781;42.292;23.146;2023-04-09T07:41:36;95778.63;;;11.65;68.90
69570;BME280;56781;42.292;23.146;2023-04-09T07:44:04;95772.44;;;11.78;68.07
69570;BME280;56781;42.292;23.146;2023-04-09T07:46:32;95779.34;;;11.57;65.30
69570;BME280;56781;42.292;23.146;2023-04-09T07:48:59;95776.09;;;11.82;67.12
69570;BME280;56781;42.292;23.146;2023-04-09T07:51:26;95771.25;;;11.84;66.23
69570;BME280;56781;42.292;23.146;2023-04-09T07:53:54;95778.06;;;11.26;67.80
69570;BME280;56781;42.292;23.146;2023-04-09T07:56:21;95782.41;;;11.22;66.14
69570;BME280;56781;42.292;23.146;2023-04-09T07:58:48;95784.78;;;11.65;68.56
69570;BME280;56781;42.292;23.146;2023-04-09T08:01:16;95784.88;;;11.88;65.18
69570;BME280;56781;42.292;23.146;2023-04-09T08:03:43;95767.34;;;12.27;64.67
69570;BME280;56781;42.292;23.146;2023-04-09T08:06:11;95777.22;;;11.81;64.33
69570;BME280;56781;42.292;23.146;2023-04-09T08:08:38;95796.09;;;12.26;64.74
69570;BME280;56781;42.292;23.146;2023-04-09T08:11:05;95778.97;;;12.58;62.27
69570;BME280;56781;42.292;23.146;2023-04-09T08:13:33;95778.81;;;11.68;65.60
69570;BME280;56781;42.292;23.146;2023-04-09T08:16:00;95777.56;;;12.02;67.08
69570;BME280;56781;42.292;23.146;2023-04-09T08:18:28;95779.53;;;12.10;64.86
69570;BME280;56781;42.292;23.146;2023-04-09T08:20:56;95781.22;;;12.20;64.36
69570;BME280;56781;42.292;23.146;2023-04-09T08:23:23;95779.63;;;12.64;64.59
69570;BME280;56781;42.292;23.146;2023-04-09T08:25:50;95801.63;;;12.66;62.46
69570;BME280;56781;42.292;23.146;2023-04-09T08:28:17;95798.00;;;12.71;62.46
69570;BME280;56781;42.292;23.146;2023-04-09T08:30:44;95806.66;;;12.90;62.66
69570;BME280;56781;42.292;23.146;2023-04-09T08:33:13;95790.88;;;12.07;64.47
69570;BME280;56781;42.292;23.146;2023-04-09T08:35:40;95789.25;;;11.56;68.07
69570;BME280;56781;42.292;23.146;2023-04-09T08:38:08;95804.25;;;11.29;68.30
69570;BME280;56781;42.292;23.146;2023-04-09T08:40:35;95786.38;;;11.25;69.47
69570;BME280;56781;42.292;23.146;2023-04-09T08:43:04;95781.28;;;11.09;67.77
69570;BME280;56781;42.292;23.146;2023-04-09T08:45:34;95783.56;;;10.89;69.82
69570;BME280;56781;42.292;23.146;2023-04-09T08:48:02;95792.13;;;11.18;68.50
69570;BME280;56781;42.292;23.146;2023-04-09T08:50:32;95784.09;;;11.32;66.60
69570;BME280;56781;42.292;23.146;2023-04-09T08:53:02;95775.41;;;10.94;69.55
69570;BME280;56781;42.292;23.146;2023-04-09T08:55:29;95793.13;;;11.36;68.85
69570;BME280;56781;42.292;23.146;2023-04-09T08:57:57;95783.59;;;11.58;68.38
69570;BME280;56781;42.292;23.146;2023-04-09T09:00:24;95790.72;;;11.21;68.57
69570;BME280;56781;42.292;23.146;2023-04-09T09:03:05;95779.38;;;10.96;71.46
69570;BME280;56781;42.292;23.146;2023-04-09T09:05:41;95783.16;;;10.95;69.74
69570;BME280;56781;42.292;23.146;2023-04-09T09:08:10;95781.38;;;11.04;71.02
69570;BME280;56781;42.292;23.146;2023-04-09T09:10:42;95780.22;;;11.52;70.86
69570;BME280;56781;42.292;23.146;2023-04-09T09:13:27;95784.38;;;11.30;69.07
69570;BME280;56781;42.292;23.146;2023-04-09T09:16:11;95794.50;;;11.20;67.40
69570;BME280;56781;42.292;23.146;2023-04-09T09:18:41;95791.72;;;11.52;68.83
69570;BME280;56781;42.292;23.146;2023-04-09T09:21:13;95788.25;;;11.66;67.93
69570;BME280;56781;42.292;23.146;2023-04-09T09:23:41;95791.34;;;11.87;68.45
69570;BME280;56781;42.292;23.146;2023-04-09T09:26:19;95772.25;;;11.61;67.67
69570;BME280;56781;42.292;23.146;2023-04-09T09:28:48;95785.50;;;11.43;67.34
69570;BME280;56781;42.292;23.146;2023-04-09T09:31:17;95779.00;;;11.86;68.65
69570;BME280;56781;42.292;23.146;2023-04-09T09:33:46;95784.34;;;12.00;67.75
69570;BME280;56781;42.292;23.146;2023-04-09T09:36:30;95782.25;;;12.33;68.22
69570;BME280;56781;42.292;23.146;2023-04-09T09:38:59;95770.47;;;12.20;64.84
69570;BME280;56781;42.292;23.146;2023-04-09T09:41:30;95772.91;;;11.80;65.38
69570;BME280;56781;42.292;23.146;2023-04-09T09:43:58;95767.84;;;12.29;65.81
69570;BME280;56781;42.292;23.146;2023-04-09T09:46:25;95776.59;;;12.57;64.43
69570;BME280;56781;42.292;23.146;2023-04-09T09:48:53;95772.72;;;12.27;66.43
69570;BME280;56781;42.292;23.146;2023-04-09T09:51:24;95784.16;;;13.08;62.16
69570;BME280;56781;42.292;23.146;2023-04-09T09:53:55;95790.59;;;12.31;66.69
69570;BME280;56781;42.292;23.146;2023-04-09T09:56:29;95763.53;;;12.19;63.17
69570;BME280;56781;42.292;23.146;2023-04-09T09:59:05;95770.25;;;12.53;63.98
69570;BME280;56781;42.292;23.146;2023-04-09T10:01:33;95783.22;;;13.13;64.11
69570;BME280;56781;42.292;23.146;2023-04-09T10:04:05;95775.34;;;12.18;69.31
69570;BME280;56781;42.292;23.146;2023-04-09T10:06:33;95785.19;;;11.45;73.66
69570;BME280;56781;42.292;23.146;2023-04-09T10:09:03;95782.41;;;11.36;77.12
69570;BME280;56781;42.292;23.146;2023-04-09T10:11:32;95776.44;;;11.25;76.84
69570;BME280;56781;42.292;23.146;2023-04-09T10:14:01;95775.06;;;11.28;77.87
69570;BME280;56781;42.292;23.146;2023-04-09T10:16:28;95777.13;;;11.17;78.13
69570;BME280;56781;42.292;23.146;2023-04-09T10:18:58;95772.78;;;11.21;76.60
69570;BME280;56781;42.292;23.146;2023-04-09T10:21:33;95773.84;;;11.20;75.27
69570;BME280;56781;42.292;23.146;2023-04-09T10:24:03;95763.31;;;10.96;75.04
69570;BME280;56781;42.292;23.146;2023-04-09T10:26:34;95768.09;;;10.99;76.39
69570;BME280;56781;42.292;23.146;2023-04-09T10:29:03;95762.06;;;11.07;76.47
69570;BME280;56781;42.292;23.146;2023-04-09T10:31:53;95791.91;;;11.56;78.38
69570;BME280;56781;42.292;23.146;2023-04-09T10:34:22;95766.63;;;11.62;73.70
69570;BME280;56781;42.292;23.146;2023-04-09T10:36:52;95785.56;;;11.66;71.68
69570;BME280;56781;42.292;23.146;2023-04-09T10:39:30;95761.75;;;11.50;73.14
69570;BME280;56781;42.292;23.146;2023-04-09T10:41:59;95789.00;;;11.80;73.29
69570;BME280;56781;42.292;23.146;2023-04-09T10:44:27;95765.47;;;11.77;73.77
69570;BME280;56781;42.292;23.146;2023-04-09T10:46:58;95768.50;;;11.62;74.46
69570;BME280;56781;42.292;23.146;2023-04-09T10:49:25;95774.06;;;11.65;73.73
69570;BME280;56781;42.292;23.146;2023-04-09T10:52:10;95761.53;;;11.61;73.07
69570;BME280;56781;42.292;23.146;2023-04-09T10:54:43;95751.56;;;12.03;72.40
69570;BME280;56781;42.292;23.146;2023-04-09T10:57:21;95752.91;;;12.14;71.46
69570;BME280;56781;42.292;23.146;2023-04-09T10:59:53;95753.63;;;12.28;71.36
69570;BME280;56781;42.292;23.146;2023-04-09T11:07:37;95744.09;;;11.36;71.57
69570;BME280;56781;42.292;23.146;2023-04-09T11:10:06;95771.06;;;11.12;72.12
69570;BME280;56781;42.292;23.146;2023-04-09T11:12:34;95758.97;;;11.00;75.66
69570;BME280;56781;42.292;23.146;2023-04-09T11:15:02;95756.00;;;11.16;76.30
69570;BME280;56781;42.292;23.146;2023-04-09T11:17:30;95755.75;;;10.71;77.50
69570;BME280;56781;42.292;23.146;2023-04-09T11:20:02;95754.50;;;10.49;78.53
69570;BME280;56781;42.292;23.146;2023-04-09T11:22:29;95765.63;;;10.56;79.68
69570;BME280;56781;42.292;23.146;2023-04-09T11:24:56;95764.72;;;10.09;85.89
69570;BME280;56781;42.292;23.146;2023-04-09T11:27:23;95787.00;;;10.05;85.10
69570;BME280;56781;42.292;23.146;2023-04-09T11:29:54;95757.72;;;9.94;87.39
69570;BME280;56781;42.292;23.146;2023-04-09T11:32:21;95769.34;;;9.85;89.30
69570;BME280;56781;42.292;23.146;2023-04-09T11:34:54;95781.84;;;9.70;91.02
69570;BME280;56781;42.292;23.146;2023-04-09T11:37:23;95764.50;;;9.25;92.54
69570;BME280;56781;42.292;23.146;2023-04-09T11:39:50;95786.66;;;9.25;93.16
69570;BME280;56781;42.292;23.146;2023-04-09T11:42:23;95779.94;;;9.28;92.97
69570;BME280;56781;42.292;23.146;2023-04-09T11:44:53;95763.38;;;9.31;92.85
69570;BME280;56781;42.292;23.146;2023-04-09T11:47:20;95754.94;;;9.43;95.11
69570;BME280;56781;42.292;23.146;2023-04-09T11:49:48;95758.06;;;9.88;93.37
69570;BME280;56781;42.292;23.146;2023-04-09T11:52:15;95755.69;;;10.05;89.74
69570;BME280;56781;42.292;23.146;2023-04-09T11:54:48;95755.97;;;10.23;91.42
69570;BME280;56781;42.292;23.146;2023-04-09T11:57:15;95747.00;;;10.65;92.02
69570;BME280;56781;42.292;23.146;2023-04-09T11:59:43;95747.06;;;11.20;84.38
69570;BME280;56781;42.292;23.146;2023-04-09T12:02:11;95742.19;;;11.50;86.99
69570;BME280;56781;42.292;23.146;2023-04-09T12:04:48;95740.28;;;11.50;84.31
69570;BME280;56781;42.292;23.146;2023-04-09T12:07:16;95762.50;;;11.92;81.58
69570;BME280;56781;42.292;23.146;2023-04-09T12:09:47;95736.22;;;11.53;82.08
69570;BME280;56781;42.292;23.146;2023-04-09T12:12:19;95741.72;;;11.84;80.83
69570;BME280;56781;42.292;23.146;2023-04-09T12:14:46;95756.69;;;11.63;80.95
69570;BME280;56781;42.292;23.146;2023-04-09T12:17:13;95733.09;;;11.87;79.75
69570;BME280;56781;42.292;23.146;2023-04-09T12:19:40;95722.56;;;11.77;79.98
69570;BME280;56781;42.292;23.146;2023-04-09T12:22:07;95723.53;;;11.45;82.25
69570;BME280;56781;42.292;23.146;2023-04-09T12:24:34;95755.09;;;11.34;84.85
69570;BME280;56781;42.292;23.146;2023-04-09T12:27:01;95734.66;;;11.24;82.23
69570;BME280;56781;42.292;23.146;2023-04-09T12:29:28;95742.66;;;11.66;80.20
69570;BME280;56781;42.292;23.146;2023-04-09T12:31:56;95729.75;;;11.68;80.07
69570;BME280;56781;42.292;23.146;2023-04-09T12:34:23;95743.78;;;11.65;81.07
69570;BME280;56781;42.292;23.146;2023-04-09T12:36:50;95714.59;;;11.49;82.32
69570;BME280;56781;42.292;23.146;2023-04-09T12:39:18;95711.69;;;11.60;81.77
69570;BME280;56781;42.292;23.146;2023-04-09T12:41:46;95727.56;;;11.70;78.42
69570;BME280;56781;42.292;23.146;2023-04-09T12:44:13;95701.91;;;11.77;81.27
69570;BME280;56781;42.292;23.146;2023-04-09T12:46:41;95721.41;;;11.56;83.17
69570;BME280;56781;42.292;23.146;2023-04-09T12:49:08;95712.13;;;10.84;84.43
69570;BME280;56781;42.292;23.146;2023-04-09T12:51:35;95702.59;;;10.64;83.81
69570;BME280;56781;42.292;23.146;2023-04-09T12:54:02;95703.31;;;11.25;80.61
69570;BME280;56781;42.292;23.146;2023-04-09T12:56:29;95701.34;;;11.67;81.60
69570;BME280;56781;42.292;23.146;2023-04-09T12:58:57;95704.56;;;11.41;79.02
69570;BME280;56781;42.292;23.146;2023-04-09T13:01:24;95701.50;;;11.84;80.70
69570;BME280;56781;42.292;23.146;2023-04-09T13:03:51;95713.13;;;11.93;81.15
69570;BME280;56781;42.292;23.146;2023-04-09T13:06:19;95695.06;;;11.71;75.89